createdAt,value
2022-08-17T00:00:43.513Z,7.13
2022-08-17T00:01:26.257Z,7.30
2022-08-17T00:01:59.383Z,6.93
2022-08-17T00:02:41.119Z,6.35
2022-08-17T00:03:19.414Z,6.43
2022-08-17T00:03:52.477Z,6.70
2022-08-17T00:04:24.414Z,7.10
2022-08-17T00:04:57.185Z,5.82
2022-08-17T00:05:31.627Z,7.57
2022-08-17T00:06:08.512Z,7.68
2022-08-17T00:06:41.993Z,7.00
2022-08-17T00:07:17.665Z,6.28
2022-08-17T00:07:49.672Z,6.65
2022-08-17T00:08:25.495Z,6.93
2022-08-17T00:08:59.256Z,6.15
2022-08-17T00:09:31.094Z,7.88
2022-08-17T00:10:04.348Z,6.85
2022-08-17T00:10:36.358Z,6.85
2022-08-17T00:11:14.083Z,7.40
2022-08-17T00:12:42.278Z,6.65
2022-08-17T00:12:42.997Z,7.00
2022-08-17T00:13:19.771Z,7.35
2022-08-17T00:13:56.124Z,8.50
2022-08-17T00:14:28.941Z,7.43
2022-08-17T00:15:01.764Z,6.60
2022-08-17T00:15:33.829Z,6.40
2022-08-17T00:16:09.207Z,7.03
2022-08-17T00:16:56.177Z,6.25
2022-08-17T00:17:29.570Z,7.15
2022-08-17T00:18:01.638Z,6.75
2022-08-17T00:19:01.837Z,7.35
2022-08-17T00:19:27.569Z,5.90
2022-08-17T00:20:00.035Z,7.32
2022-08-17T00:20:35.069Z,6.53
2022-08-17T00:21:10.508Z,6.78
2022-08-17T00:22:29.888Z,6.57
2022-08-17T00:22:39.177Z,6.22
2022-08-17T00:23:13.619Z,6.40
2022-08-17T00:23:49.021Z,6.20
2022-08-17T00:24:21.304Z,6.60
2022-08-17T00:24:53.531Z,6.10
2022-08-17T00:25:26.477Z,6.50
2022-08-17T00:25:58.421Z,6.07
2022-08-17T00:26:43.464Z,7.10
2022-08-17T00:27:18.228Z,7.05
2022-08-17T00:27:50.081Z,6.30
2022-08-17T00:28:21.958Z,6.93
2022-08-17T00:28:55.640Z,6.10
2022-08-17T00:29:28.072Z,6.28
2022-08-17T00:30:00.311Z,7.00
2022-08-17T00:30:50.930Z,6.43
2022-08-17T00:31:24.915Z,7.43
2022-08-17T00:31:56.751Z,6.90
2022-08-17T00:33:12.481Z,7.25
2022-08-17T00:33:23.991Z,7.38
2022-08-17T00:33:56.154Z,6.40
2022-08-17T00:34:28.057Z,6.38
2022-08-17T00:35:09.536Z,5.65
2022-08-17T00:35:42.512Z,6.25
2022-08-17T00:36:16.345Z,6.30
2022-08-17T00:36:49.558Z,6.00
2022-08-17T00:37:21.413Z,6.18
2022-08-17T00:37:53.791Z,7.32
2022-08-17T00:38:27.440Z,7.03
2022-08-17T00:38:59.323Z,6.70
2022-08-17T00:39:31.254Z,6.13
2022-08-17T00:40:05.273Z,6.28
2022-08-17T00:40:44.209Z,5.90
2022-08-17T00:41:19.042Z,6.68
2022-08-17T00:41:51.940Z,6.30
2022-08-17T00:42:27.608Z,5.93
2022-08-17T00:43:12.923Z,5.97
2022-08-17T00:43:48.442Z,6.40
2022-08-17T00:44:20.318Z,6.25
2022-08-17T00:44:52.298Z,6.13
2022-08-17T00:45:25.200Z,6.88
2022-08-17T00:45:58.258Z,6.10
2022-08-17T00:46:32.832Z,6.05
2022-08-17T00:47:05.758Z,6.20
2022-08-17T00:47:37.894Z,6.82
2022-08-17T00:48:27.285Z,6.20
2022-08-17T00:49:03.125Z,6.60
2022-08-17T00:49:34.966Z,6.53
2022-08-17T00:50:09.819Z,6.32
2022-08-17T00:50:48.447Z,6.93
2022-08-17T00:51:28.795Z,6.38
2022-08-17T00:52:11.823Z,6.03
2022-08-17T00:52:50.826Z,6.07
2022-08-17T00:53:24.271Z,6.55
2022-08-17T00:54:00.364Z,7.07
2022-08-17T00:54:41.031Z,6.38
2022-08-17T00:55:15.657Z,6.40
2022-08-17T00:55:47.729Z,6.10
2022-08-17T00:56:27.028Z,6.47
2022-08-17T00:57:05.490Z,5.60
2022-08-17T00:57:43.317Z,6.40
2022-08-17T00:58:15.410Z,6.93
2022-08-17T00:58:50.095Z,7.70
2022-08-17T00:59:25.846Z,5.60
2022-08-17T01:00:03.773Z,6.20
2022-08-17T01:00:41.762Z,7.65
2022-08-17T01:01:21.747Z,6.50
2022-08-17T01:01:54.398Z,5.75
2022-08-17T01:02:29.794Z,6.88
2022-08-17T01:03:10.696Z,5.97
2022-08-17T01:03:43.789Z,6.47
2022-08-17T01:04:18.061Z,6.47
2022-08-17T01:04:52.369Z,6.60
2022-08-17T01:05:26.886Z,6.43
2022-08-17T01:06:04.366Z,6.35
2022-08-17T01:06:36.699Z,6.07
2022-08-17T01:07:11.137Z,6.78
2022-08-17T01:07:44.503Z,6.82
2022-08-17T01:08:20.334Z,6.75
2022-08-17T01:08:57.479Z,6.07
2022-08-17T01:09:30.983Z,5.95
2022-08-17T01:10:06.011Z,6.40
2022-08-17T01:10:57.486Z,6.65
2022-08-17T01:11:32.923Z,6.43
2022-08-17T01:12:08.374Z,6.68
2022-08-17T01:12:41.643Z,6.32
2022-08-17T01:13:14.930Z,6.20
2022-08-17T01:13:48.145Z,6.47
2022-08-17T01:14:21.413Z,7.55
2022-08-17T01:14:53.318Z,6.40
2022-08-17T01:15:25.854Z,7.00
2022-08-17T01:16:02.835Z,6.25
2022-08-17T01:16:36.061Z,6.38
2022-08-17T01:17:08.798Z,6.93
2022-08-17T01:17:42.313Z,7.38
2022-08-17T01:18:14.598Z,6.45
2022-08-17T01:18:50.335Z,6.57
2022-08-17T01:19:25.143Z,6.20
2022-08-17T01:19:58.277Z,6.75
2022-08-17T01:20:30.268Z,6.15
2022-08-17T01:21:22.270Z,6.63
2022-08-17T01:22:00.874Z,6.13
2022-08-17T01:22:34.166Z,6.85
2022-08-17T01:23:07.026Z,6.28
2022-08-17T01:23:39.729Z,6.65
2022-08-17T01:24:11.770Z,7.05
2022-08-17T01:24:49.193Z,7.40
2022-08-17T01:25:22.267Z,7.32
2022-08-17T01:25:57.056Z,6.90
2022-08-17T01:26:31.421Z,7.38
2022-08-17T01:27:04.020Z,6.60
2022-08-17T01:27:43.417Z,6.45
2022-08-17T01:28:52.664Z,6.10
2022-08-17T01:29:08.965Z,6.68
2022-08-17T01:29:45.701Z,7.25
2022-08-17T01:30:58.659Z,7.97
2022-08-17T01:31:11.314Z,5.97
2022-08-17T01:31:47.100Z,6.57
2022-08-17T01:32:20.606Z,6.50
2022-08-17T01:32:52.499Z,7.38
2022-08-17T01:33:24.334Z,7.38
2022-08-17T01:33:58.184Z,6.15
2022-08-17T01:34:42.638Z,6.90
2022-08-17T01:35:15.717Z,6.70
2022-08-17T01:35:48.601Z,5.90
2022-08-17T01:36:20.656Z,6.50
2022-08-17T01:36:53.133Z,6.28
2022-08-17T01:37:30.455Z,6.75
2022-08-17T01:38:04.877Z,6.30
2022-08-17T01:38:38.054Z,6.20
2022-08-17T01:39:15.236Z,6.60
2022-08-17T01:39:51.388Z,6.93
2022-08-17T01:40:30.320Z,6.05
2022-08-17T01:41:06.481Z,6.68
2022-08-17T01:41:41.897Z,7.05
2022-08-17T01:42:21.235Z,6.40
2022-08-17T01:42:58.498Z,6.47
2022-08-17T01:43:34.546Z,7.22
2022-08-17T01:44:08.109Z,6.20
2022-08-17T01:44:39.973Z,6.63
2022-08-17T01:45:16.657Z,6.70
2022-08-17T01:46:02.557Z,6.35
2022-08-17T01:46:37.088Z,6.97
2022-08-17T01:47:09.915Z,6.32
2022-08-17T01:47:41.796Z,6.88
2022-08-17T01:48:13.790Z,6.68
2022-08-17T01:48:47.394Z,7.25
2022-08-17T01:49:19.605Z,6.55
2022-08-17T01:49:51.451Z,6.32
2022-08-17T01:50:27.403Z,6.90
2022-08-17T01:50:59.805Z,6.63
2022-08-17T01:51:32.714Z,6.00
2022-08-17T01:52:08.468Z,6.40
2022-08-17T01:52:40.799Z,6.40
2022-08-17T01:53:18.284Z,6.05
2022-08-17T01:53:54.917Z,6.47
2022-08-17T01:54:26.985Z,6.22
2022-08-17T01:54:59.468Z,6.53
2022-08-17T01:55:36.398Z,6.35
2022-08-17T01:56:11.586Z,6.93
2022-08-17T01:56:47.498Z,6.90
2022-08-17T01:57:20.716Z,6.97
2022-08-17T01:57:52.670Z,6.53
2022-08-17T01:58:24.999Z,6.90
2022-08-17T01:58:58.199Z,6.55
2022-08-17T01:59:30.089Z,7.32
2022-08-17T02:00:02.314Z,6.47
2022-08-17T02:00:59.346Z,6.57
2022-08-17T02:01:33.638Z,7.03
2022-08-17T02:02:07.254Z,7.18
2022-08-17T02:02:40.093Z,6.50
2022-08-17T02:03:13.790Z,7.63
2022-08-17T02:03:53.337Z,6.07
2022-08-17T02:04:32.890Z,7.53
2022-08-17T02:05:05.689Z,6.82
2022-08-17T02:05:37.628Z,7.15
2022-08-17T02:06:21.026Z,6.32
2022-08-17T02:07:00.953Z,7.05
2022-08-17T02:07:32.863Z,7.30
2022-08-17T02:08:39.329Z,6.45
2022-08-17T02:09:20.271Z,6.90
2022-08-17T02:09:56.462Z,7.50
2022-08-17T02:10:34.148Z,6.60
2022-08-17T02:11:11.801Z,6.72
2022-08-17T02:11:45.332Z,7.30
2022-08-17T02:12:39.039Z,6.03
2022-08-17T02:13:11.495Z,6.57
2022-08-17T02:13:44.809Z,7.13
2022-08-17T02:14:16.686Z,6.30
2022-08-17T02:14:48.519Z,6.30
2022-08-17T02:15:21.040Z,6.47
2022-08-17T02:15:53.853Z,6.40
2022-08-17T02:16:25.761Z,7.72
2022-08-17T02:16:57.623Z,6.82
2022-08-17T02:17:30.441Z,7.20
2022-08-17T02:18:03.457Z,8.07
2022-08-17T02:18:35.400Z,6.30
2022-08-17T02:19:12.494Z,6.07
2022-08-17T02:19:44.376Z,6.65
2022-08-17T02:20:16.327Z,7.05
2022-08-17T02:21:09.620Z,7.13
2022-08-17T02:21:42.897Z,7.68
2022-08-17T02:22:15.550Z,7.13
2022-08-17T02:22:49.258Z,6.15
2022-08-17T02:23:24.620Z,6.78
2022-08-17T02:23:58.087Z,7.38
2022-08-17T02:24:59.674Z,6.68
2022-08-17T02:25:30.453Z,6.55
2022-08-17T02:26:03.577Z,6.88
2022-08-17T02:26:35.501Z,7.07
2022-08-17T02:27:07.474Z,6.65
2022-08-17T02:27:39.991Z,6.72
2022-08-17T02:28:12.831Z,6.68
2022-08-17T02:28:44.714Z,7.00
2022-08-17T02:29:16.656Z,6.88
2022-08-17T02:29:49.527Z,6.82
2022-08-17T02:31:01.462Z,6.80
2022-08-17T02:31:14.493Z,7.00
2022-08-17T02:31:46.430Z,7.70
2022-08-17T02:32:27.664Z,6.15
2022-08-17T02:33:00.415Z,6.90
2022-08-17T02:33:42.756Z,7.22
2022-08-17T02:34:16.799Z,6.55
2022-08-17T02:34:49.277Z,6.30
2022-08-17T02:35:22.442Z,7.10
2022-08-17T02:35:55.270Z,6.25
2022-08-17T02:36:27.611Z,6.75
2022-08-17T02:36:59.493Z,5.88
2022-08-17T02:37:33.131Z,6.20
2022-08-17T02:38:06.078Z,6.90
2022-08-17T02:38:38.373Z,7.00
2022-08-17T02:39:13.438Z,6.47
2022-08-17T02:39:45.591Z,6.72
2022-08-17T02:40:17.905Z,6.95
2022-08-17T02:41:09.726Z,6.65
2022-08-17T02:41:41.676Z,6.35
2022-08-17T02:42:14.307Z,6.00
2022-08-17T02:42:47.526Z,6.47
2022-08-17T02:43:19.478Z,6.43
2022-08-17T02:43:51.398Z,6.88
2022-08-17T02:44:40.010Z,7.28
2022-08-17T02:45:15.346Z,6.88
2022-08-17T02:45:47.173Z,8.48
2022-08-17T02:46:19.488Z,7.28
2022-08-17T02:46:53.026Z,7.40
2022-08-17T02:47:24.950Z,6.40
2022-08-17T02:47:56.883Z,6.55
2022-08-17T02:48:31.172Z,5.80
2022-08-17T02:49:04.544Z,6.90
2022-08-17T02:49:37.279Z,7.57
2022-08-17T02:50:10.991Z,7.30
2022-08-17T02:50:43.815Z,6.45
2022-08-17T02:51:16.013Z,6.50
2022-08-17T02:51:49.554Z,6.22
2022-08-17T02:52:42.684Z,6.35
2022-08-17T02:53:14.613Z,7.13
2022-08-17T02:53:46.725Z,7.00
2022-08-17T02:54:40.076Z,6.82
2022-08-17T02:55:16.496Z,6.53
2022-08-17T02:55:49.354Z,6.85
2022-08-17T02:56:21.315Z,6.60
2022-08-17T02:56:53.172Z,7.40
2022-08-17T02:57:26.021Z,7.50
2022-08-17T02:57:58.138Z,6.95
2022-08-17T02:58:35.360Z,6.65
2022-08-17T02:59:08.464Z,7.95
2022-08-17T02:59:44.262Z,7.57
2022-08-17T03:00:22.534Z,5.50
2022-08-17T03:00:55.415Z,5.78
2022-08-17T03:01:29.276Z,6.43
2022-08-17T03:02:03.015Z,6.55
2022-08-17T03:02:39.614Z,6.60
2022-08-17T03:03:13.599Z,6.63
2022-08-17T03:03:46.482Z,6.07
2022-08-17T03:04:18.348Z,6.00
2022-08-17T03:04:50.269Z,6.93
2022-08-17T03:05:25.398Z,6.13
2022-08-17T03:05:57.335Z,7.40
2022-08-17T03:06:29.548Z,7.10
2022-08-17T03:07:02.395Z,6.93
2022-08-17T03:07:34.331Z,7.38
2022-08-17T03:08:06.938Z,7.30
2022-08-17T03:08:44.601Z,6.93
2022-08-17T03:09:16.774Z,7.40
2022-08-17T03:09:50.137Z,6.43
2022-08-17T03:10:24.565Z,7.18
2022-08-17T03:10:57.424Z,6.95
2022-08-17T03:11:29.335Z,6.47
2022-08-17T03:12:07.223Z,6.07
2022-08-17T03:12:41.590Z,6.35
2022-08-17T03:13:14.504Z,7.32
2022-08-17T03:13:47.376Z,7.38
2022-08-17T03:14:19.285Z,7.05
2022-08-17T03:14:58.181Z,6.43
2022-08-17T03:15:34.876Z,6.13
2022-08-17T03:16:09.380Z,7.38
2022-08-17T03:16:41.279Z,6.47
2022-08-17T03:17:17.329Z,6.35
2022-08-17T03:17:49.809Z,6.63
2022-08-17T03:18:24.816Z,7.78
2022-08-17T03:18:58.732Z,6.50
2022-08-17T03:19:30.980Z,6.43
2022-08-17T03:20:04.197Z,7.57
2022-08-17T03:20:36.836Z,7.15
2022-08-17T03:21:09.700Z,6.88
2022-08-17T03:21:41.540Z,7.78
2022-08-17T03:22:35.698Z,6.97
2022-08-17T03:23:06.541Z,6.85
2022-08-17T03:23:41.156Z,6.32
2022-08-17T03:24:15.012Z,6.95
2022-08-17T03:24:52.576Z,6.47
2022-08-17T03:25:28.552Z,7.15
2022-08-17T03:26:00.926Z,6.72
2022-08-17T03:26:33.730Z,6.40
2022-08-17T03:27:05.650Z,6.80
2022-08-17T03:27:38.061Z,7.68
2022-08-17T03:28:14.792Z,6.95
2022-08-17T03:28:46.635Z,6.80
2022-08-17T03:29:19.248Z,6.90
2022-08-17T03:29:51.130Z,6.63
2022-08-17T03:30:26.025Z,5.97
2022-08-17T03:30:57.850Z,6.55
2022-08-17T03:31:29.689Z,6.65
2022-08-17T03:32:10.863Z,6.47
2022-08-17T03:32:47.363Z,6.75
2022-08-17T03:33:20.000Z,6.95
2022-08-17T03:33:51.858Z,6.90
2022-08-17T03:34:24.728Z,6.28
2022-08-17T03:35:00.177Z,6.32
2022-08-17T03:35:34.226Z,6.55
2022-08-17T03:36:07.818Z,6.97
2022-08-17T03:36:39.707Z,6.65
2022-08-17T03:37:12.397Z,6.93
2022-08-17T03:37:45.275Z,6.13
2022-08-17T03:38:18.127Z,6.95
2022-08-17T03:38:50.016Z,7.10
2022-08-17T03:39:24.068Z,7.32
2022-08-17T03:39:57.366Z,6.55
2022-08-17T03:40:34.639Z,6.75
2022-08-17T03:41:23.682Z,6.25
2022-08-17T03:42:01.345Z,5.88
2022-08-17T03:42:34.090Z,6.68
2022-08-17T03:43:07.730Z,6.13
2022-08-17T03:43:40.609Z,7.20
2022-08-17T03:44:12.476Z,6.20
2022-08-17T03:44:48.719Z,6.97
2022-08-17T03:45:44.217Z,6.80
2022-08-17T03:46:35.605Z,5.78
2022-08-17T03:47:26.020Z,6.40
2022-08-17T03:48:16.699Z,5.90
2022-08-17T03:49:07.204Z,6.03
2022-08-17T03:49:57.634Z,6.10
2022-08-17T03:50:48.386Z,6.63
2022-08-17T03:51:41.372Z,6.90
2022-08-17T03:52:31.714Z,6.05
2022-08-17T03:53:39.563Z,6.32
2022-08-17T03:54:30.204Z,6.43
2022-08-17T03:55:21.973Z,5.97
2022-08-17T03:56:26.331Z,6.22
2022-08-17T03:57:04.322Z,5.65
2022-08-17T03:57:36.745Z,7.20
2022-08-17T03:58:08.599Z,6.55
2022-08-17T03:58:41.408Z,5.80
2022-08-17T03:59:18.499Z,6.53
2022-08-17T03:59:55.182Z,6.20
2022-08-17T04:00:27.663Z,6.05
2022-08-17T04:01:00.342Z,5.68
2022-08-17T04:01:32.282Z,6.57
2022-08-17T04:02:08.935Z,5.90
2022-08-17T04:02:42.922Z,6.55
2022-08-17T04:03:16.293Z,6.55
2022-08-17T04:03:48.138Z,7.65
2022-08-17T04:04:21.494Z,6.15
2022-08-17T04:05:01.208Z,5.97
2022-08-17T04:05:34.614Z,5.80
2022-08-17T04:06:07.188Z,5.93
2022-08-17T04:06:40.315Z,6.85
2022-08-17T04:07:12.256Z,6.30
2022-08-17T04:07:45.373Z,6.53
2022-08-17T04:08:17.263Z,6.05
2022-08-17T04:08:49.105Z,5.95
2022-08-17T04:09:21.060Z,6.10
2022-08-17T04:09:53.988Z,6.25
2022-08-17T04:10:27.241Z,6.20
2022-08-17T04:11:01.186Z,5.82
2022-08-17T04:11:34.288Z,6.82
2022-08-17T04:12:06.450Z,6.05
2022-08-17T04:12:47.076Z,5.65
2022-08-17T04:13:24.743Z,6.85
2022-08-17T04:13:57.403Z,6.97
2022-08-17T04:14:31.086Z,6.72
2022-08-17T04:15:04.125Z,6.53
2022-08-17T04:15:35.990Z,6.82
2022-08-17T04:16:08.125Z,6.25
2022-08-17T04:16:40.171Z,6.63
2022-08-17T04:17:13.105Z,6.45
2022-08-17T04:17:46.432Z,6.47
2022-08-17T04:18:19.421Z,6.07
2022-08-17T04:18:52.312Z,6.60
2022-08-17T04:19:24.192Z,6.72
2022-08-17T04:19:56.907Z,6.13
2022-08-17T04:20:30.070Z,6.72
2022-08-17T04:21:01.988Z,6.63
2022-08-17T04:21:34.603Z,5.97
2022-08-17T04:22:07.437Z,6.13
2022-08-17T04:22:39.446Z,5.85
2022-08-17T04:23:14.345Z,6.50
2022-08-17T04:23:47.322Z,6.10
2022-08-17T04:24:19.210Z,5.97
2022-08-17T04:24:51.070Z,6.75
2022-08-17T04:25:23.899Z,6.13
2022-08-17T04:25:57.437Z,6.60
2022-08-17T04:26:53.848Z,6.20
2022-08-17T04:27:22.441Z,5.95
2022-08-17T04:27:54.823Z,6.65
2022-08-17T04:28:26.730Z,6.45
2022-08-17T04:29:00.778Z,6.32
2022-08-17T04:29:50.858Z,5.93
2022-08-17T04:30:24.769Z,5.55
2022-08-17T04:30:58.463Z,7.60
2022-08-17T04:31:30.425Z,5.53
2022-08-17T04:32:02.918Z,5.93
2022-08-17T04:33:04.851Z,6.15
2022-08-17T04:33:39.216Z,6.22
2022-08-17T04:34:12.685Z,6.07
2022-08-17T04:34:44.499Z,5.28
2022-08-17T04:35:19.914Z,6.32
2022-08-17T04:35:54.300Z,6.47
2022-08-17T04:36:26.886Z,5.72
2022-08-17T04:36:58.798Z,6.10
2022-08-17T04:37:31.609Z,5.70
2022-08-17T04:38:03.649Z,6.15
2022-08-17T04:38:37.509Z,6.35
2022-08-17T04:39:10.332Z,7.18
2022-08-17T04:40:04.359Z,6.03
2022-08-17T04:40:55.407Z,6.70
2022-08-17T04:41:47.220Z,6.85
2022-08-17T04:42:19.067Z,6.18
2022-08-17T04:43:01.337Z,6.05
2022-08-17T04:43:35.715Z,6.35
2022-08-17T04:44:07.590Z,6.05
2022-08-17T04:44:39.431Z,7.07
2022-08-17T04:45:11.968Z,6.28
2022-08-17T04:45:55.905Z,6.10
2022-08-17T04:46:31.720Z,6.68
2022-08-17T04:47:04.681Z,6.15
2022-08-17T04:47:36.518Z,6.15
2022-08-17T04:48:08.443Z,6.25
2022-08-17T04:48:43.374Z,6.35
2022-08-17T04:49:17.477Z,6.43
2022-08-17T04:49:49.326Z,6.63
2022-08-17T04:50:21.356Z,6.60
2022-08-17T04:50:53.444Z,6.28
2022-08-17T04:51:30.029Z,6.50
2022-08-17T04:52:04.559Z,6.78
2022-08-17T04:52:45.547Z,6.30
2022-08-17T04:53:21.679Z,5.63
2022-08-17T04:53:58.094Z,5.75
2022-08-17T04:54:31.463Z,6.00
2022-08-17T04:55:03.928Z,5.88
2022-08-17T04:55:35.960Z,6.78
2022-08-17T04:56:16.015Z,5.75
2022-08-17T04:56:51.360Z,6.40
2022-08-17T04:57:23.228Z,6.35
2022-08-17T04:57:55.287Z,5.75
2022-08-17T04:58:27.257Z,5.68
2022-08-17T04:59:02.466Z,5.63
2022-08-17T04:59:34.348Z,5.43
2022-08-17T05:00:08.642Z,6.43
2022-08-17T05:00:41.661Z,5.47
2022-08-17T05:01:13.608Z,5.40
2022-08-17T05:01:48.254Z,5.53
2022-08-17T05:02:21.083Z,5.35
2022-08-17T05:02:55.173Z,6.38
2022-08-17T05:03:27.282Z,7.03
2022-08-17T05:04:20.749Z,5.75
2022-08-17T05:04:54.026Z,5.82
2022-08-17T05:05:31.111Z,6.15
2022-08-17T05:06:04.466Z,5.35
2022-08-17T05:06:36.543Z,5.65
2022-08-17T05:07:09.389Z,5.18
2022-08-17T05:07:41.483Z,5.10
2022-08-17T05:08:13.393Z,5.93
2022-08-17T05:08:46.202Z,6.63
2022-08-17T05:09:18.705Z,5.60
2022-08-17T05:09:50.559Z,6.15
2022-08-17T05:10:24.055Z,5.03
2022-08-17T05:10:55.992Z,5.57
2022-08-17T05:11:29.389Z,5.50
2022-08-17T05:12:03.941Z,5.78
2022-08-17T05:12:35.828Z,6.72
2022-08-17T05:13:10.916Z,5.47
2022-08-17T05:13:44.682Z,5.85
2022-08-17T05:14:16.584Z,5.30
2022-08-17T05:14:48.408Z,5.82
2022-08-17T05:15:21.296Z,5.25
2022-08-17T05:15:56.854Z,5.43
2022-08-17T05:16:30.196Z,6.50
2022-08-17T05:17:07.443Z,6.25
2022-08-17T05:17:43.566Z,5.50
2022-08-17T05:18:16.489Z,6.57
2022-08-17T05:18:49.182Z,5.95
2022-08-17T05:19:22.006Z,6.10
2022-08-17T05:19:53.857Z,5.93
2022-08-17T05:20:26.118Z,5.60
2022-08-17T05:20:59.630Z,6.43
2022-08-17T05:21:31.574Z,6.20
2022-08-17T05:22:05.825Z,5.25
2022-08-17T05:22:47.406Z,5.18
2022-08-17T05:23:21.064Z,5.78
2022-08-17T05:23:54.815Z,5.68
2022-08-17T05:24:42.601Z,4.97
2022-08-17T05:25:21.083Z,5.20
2022-08-17T05:25:58.498Z,5.18
2022-08-17T05:26:30.421Z,5.75
2022-08-17T05:27:06.104Z,5.60
2022-08-17T05:27:39.808Z,5.40
2022-08-17T05:28:14.992Z,5.05
2022-08-17T05:28:49.338Z,5.00
2022-08-17T05:29:22.753Z,5.00
2022-08-17T05:30:08.273Z,5.63
2022-08-17T05:30:43.022Z,6.65
2022-08-17T05:31:14.960Z,5.90
2022-08-17T05:31:46.878Z,5.38
2022-08-17T05:32:38.735Z,4.80
2022-08-17T05:33:14.622Z,5.43
2022-08-17T05:33:47.445Z,4.78
2022-08-17T05:34:19.715Z,5.47
2022-08-17T05:34:51.564Z,5.07
2022-08-17T05:35:24.863Z,4.80
2022-08-17T05:35:58.927Z,5.72
2022-08-17T05:36:41.622Z,5.20
2022-08-17T05:37:16.079Z,5.90
2022-08-17T05:37:48.187Z,5.07
2022-08-17T05:38:23.102Z,5.75
2022-08-17T05:38:54.953Z,5.13
2022-08-17T05:39:27.830Z,5.00
2022-08-17T05:40:00.037Z,5.97
2022-08-17T05:40:32.785Z,5.60
2022-08-17T05:41:08.907Z,4.90
2022-08-17T05:41:40.807Z,4.85
2022-08-17T05:42:18.805Z,5.35
2022-08-17T05:42:50.864Z,5.78
2022-08-17T05:43:26.941Z,5.68
2022-08-17T05:43:58.830Z,5.78
2022-08-17T05:44:31.825Z,4.63
2022-08-17T05:45:04.178Z,4.82
2022-08-17T05:45:54.749Z,5.40
2022-08-17T05:46:36.153Z,5.20
2022-08-17T05:47:09.973Z,5.25
2022-08-17T05:47:44.414Z,4.85
2022-08-17T05:48:17.495Z,5.80
2022-08-17T05:48:51.873Z,4.97
2022-08-17T05:49:28.374Z,5.40
2022-08-17T05:50:01.584Z,5.45
2022-08-17T05:50:41.761Z,5.28
2022-08-17T05:51:47.154Z,5.53
2022-08-17T05:52:26.400Z,4.50
2022-08-17T05:53:06.227Z,5.55
2022-08-17T05:53:45.798Z,4.82
2022-08-17T05:54:33.033Z,5.55
2022-08-17T05:55:18.465Z,4.25
2022-08-17T05:56:04.869Z,4.97
2022-08-17T05:56:51.744Z,4.70
2022-08-17T05:57:53.081Z,5.53
2022-08-17T05:58:34.178Z,5.50
2022-08-17T05:59:22.426Z,5.07
2022-08-17T06:00:04.476Z,5.18
2022-08-17T06:00:43.142Z,5.47
2022-08-17T06:01:30.114Z,5.47
2022-08-17T06:02:11.320Z,5.93
2022-08-17T06:02:59.422Z,5.45
2022-08-17T06:03:42.894Z,5.50
2022-08-17T06:04:26.228Z,6.38
2022-08-17T06:05:13.712Z,4.95
2022-08-17T06:06:08.934Z,5.53
2022-08-17T06:06:46.267Z,5.65
2022-08-17T06:07:23.853Z,5.30
2022-08-17T06:08:02.417Z,5.85
2022-08-17T06:08:43.008Z,5.72
2022-08-17T06:09:30.139Z,4.90
2022-08-17T06:10:13.382Z,4.82
2022-08-17T06:10:54.313Z,5.63
2022-08-17T06:11:36.887Z,5.75
2022-08-17T06:12:22.466Z,7.18
2022-08-17T06:13:10.484Z,5.60
2022-08-17T06:13:56.963Z,6.70
2022-08-17T06:14:42.553Z,6.90
2022-08-17T06:15:24.876Z,5.90
2022-08-17T06:16:03.182Z,7.10
2022-08-17T06:16:39.373Z,5.75
2022-08-17T06:17:15.240Z,6.85
2022-08-17T06:17:48.253Z,6.85
2022-08-17T06:18:21.990Z,6.70
2022-08-17T06:19:06.209Z,6.85
2022-08-17T06:19:42.094Z,6.50
2022-08-17T06:20:15.580Z,6.78
2022-08-17T06:20:51.657Z,6.53
2022-08-17T06:21:32.110Z,6.25
2022-08-17T06:22:06.125Z,6.68
2022-08-17T06:22:42.459Z,6.15
2022-08-17T06:23:31.259Z,7.78
2022-08-17T06:24:07.660Z,6.30
2022-08-17T06:24:46.702Z,5.40
2022-08-17T06:25:23.169Z,5.88
2022-08-17T06:26:03.668Z,5.55
2022-08-17T06:26:42.931Z,6.10
2022-08-17T06:27:23.128Z,6.85
2022-08-17T06:27:59.652Z,8.25
2022-08-17T06:28:38.880Z,7.35
2022-08-17T06:29:20.960Z,10.40
2022-08-17T06:29:57.402Z,7.32
2022-08-17T06:30:36.739Z,10.38
2022-08-17T06:31:31.137Z,7.70
2022-08-17T06:32:05.433Z,7.90
2022-08-17T06:32:39.209Z,7.35
2022-08-17T06:33:20.586Z,6.38
2022-08-17T06:33:52.428Z,6.55
2022-08-17T06:34:24.558Z,6.97
2022-08-17T06:34:58.836Z,6.78
2022-08-17T06:35:37.604Z,6.70
2022-08-17T06:36:25.126Z,6.03
2022-08-17T06:37:07.689Z,6.28
2022-08-17T06:37:58.237Z,5.60
2022-08-17T06:38:44.450Z,6.28
2022-08-17T06:39:28.672Z,7.63
2022-08-17T06:40:18.936Z,7.47
2022-08-17T06:41:01.737Z,6.22
2022-08-17T06:41:43.484Z,5.65
2022-08-17T06:43:02.629Z,5.70
2022-08-17T06:43:48.135Z,5.88
2022-08-17T06:44:49.754Z,5.35
2022-08-17T06:45:25.841Z,5.13
2022-08-17T06:46:02.855Z,6.10
2022-08-17T06:46:38.737Z,4.95
2022-08-17T06:47:15.562Z,5.60
2022-08-17T06:48:09.969Z,5.03
2022-08-17T06:48:53.866Z,5.65
2022-08-17T06:49:30.321Z,5.00
2022-08-17T06:50:11.521Z,6.10
2022-08-17T06:50:53.342Z,6.50
2022-08-17T06:51:31.736Z,6.18
2022-08-17T06:52:12.170Z,5.45
2022-08-17T06:53:12.193Z,4.93
2022-08-17T06:53:48.220Z,5.68
2022-08-17T06:54:32.530Z,5.00
2022-08-17T06:55:07.961Z,5.18
2022-08-17T06:55:55.869Z,4.88
2022-08-17T06:56:53.408Z,5.13
2022-08-17T06:57:30.521Z,5.22
2022-08-17T06:58:16.612Z,5.07
2022-08-17T06:58:50.167Z,5.75
2022-08-17T06:59:54.903Z,5.57
2022-08-17T07:00:23.063Z,4.30
2022-08-17T07:00:59.076Z,4.90
2022-08-17T07:01:35.503Z,4.90
2022-08-17T07:02:10.226Z,4.78
2022-08-17T07:02:51.522Z,5.80
2022-08-17T07:03:35.678Z,5.00
2022-08-17T07:04:12.978Z,5.18
2022-08-17T07:04:46.877Z,4.90
2022-08-17T07:05:22.369Z,5.45
2022-08-17T07:05:58.635Z,5.63
2022-08-17T07:06:38.239Z,4.75
2022-08-17T07:07:30.350Z,5.45
2022-08-17T07:08:09.162Z,4.47
2022-08-17T07:08:55.531Z,4.60
2022-08-17T07:09:32.153Z,4.75
2022-08-17T07:10:05.253Z,4.57
2022-08-17T07:10:42.574Z,4.50
2022-08-17T07:11:19.256Z,5.05
2022-08-17T07:11:53.888Z,5.03
2022-08-17T07:12:34.025Z,5.03
2022-08-17T07:13:25.585Z,4.30
2022-08-17T07:14:13.989Z,5.15
2022-08-17T07:14:53.933Z,4.75
2022-08-17T07:15:33.903Z,4.00
2022-08-17T07:16:16.585Z,4.75
2022-08-17T07:16:52.836Z,4.40
2022-08-17T07:17:46.447Z,4.65
2022-08-17T07:18:26.358Z,4.70
2022-08-17T07:19:00.207Z,4.47
2022-08-17T07:19:35.136Z,4.57
2022-08-17T07:20:10.263Z,4.18
2022-08-17T07:20:47.889Z,4.80
2022-08-17T07:21:30.058Z,4.88
2022-08-17T07:22:14.935Z,4.90
2022-08-17T07:23:00.209Z,4.88
2022-08-17T07:23:40.042Z,4.28
2022-08-17T07:24:32.998Z,5.22
2022-08-17T07:25:08.373Z,4.35
2022-08-17T07:25:40.234Z,4.68
2022-08-17T07:26:13.214Z,6.18
2022-08-17T07:26:49.509Z,5.15
2022-08-17T07:27:24.445Z,4.50
2022-08-17T07:27:59.673Z,4.35
2022-08-17T07:28:34.821Z,4.30
2022-08-17T07:29:11.207Z,4.78
2022-08-17T07:29:49.378Z,4.53
2022-08-17T07:30:25.399Z,4.22
2022-08-17T07:30:57.213Z,4.35
2022-08-17T07:31:33.383Z,5.70
2022-08-17T07:32:06.396Z,4.70
2022-08-17T07:32:43.133Z,4.80
2022-08-17T07:33:20.127Z,4.10
2022-08-17T07:34:01.834Z,4.95
2022-08-17T07:35:04.450Z,4.80
2022-08-17T07:35:41.463Z,4.15
2022-08-17T07:36:29.583Z,4.03
2022-08-17T07:37:05.199Z,4.20
2022-08-17T07:37:38.919Z,4.93
2022-08-17T07:38:24.762Z,4.20
2022-08-17T07:38:58.157Z,5.45
2022-08-17T07:39:30.261Z,3.95
2022-08-17T07:40:18.780Z,4.25
2022-08-17T07:41:05.075Z,4.50
2022-08-17T07:41:57.406Z,4.38
2022-08-17T07:42:30.682Z,4.80
2022-08-17T07:43:21.803Z,4.85
2022-08-17T07:43:56.333Z,4.43
2022-08-17T07:44:49.885Z,4.22
2022-08-17T07:45:36.826Z,4.13
2022-08-17T07:46:35.164Z,4.45
2022-08-17T07:47:35.213Z,4.47
2022-08-17T07:48:19.283Z,5.28
2022-08-17T07:48:55.093Z,4.43
2022-08-17T07:49:35.337Z,4.53
2022-08-17T07:50:27.233Z,4.20
2022-08-17T07:51:00.124Z,4.35
2022-08-17T07:51:36.256Z,4.50
2022-08-17T07:52:24.280Z,4.72
2022-08-17T07:53:17.225Z,4.30
2022-08-17T07:53:49.318Z,4.38
2022-08-17T07:54:24.694Z,4.70
2022-08-17T07:54:57.572Z,4.55
2022-08-17T07:55:34.831Z,4.75
2022-08-17T07:56:07.591Z,4.20
2022-08-17T07:56:46.077Z,4.63
2022-08-17T07:57:32.127Z,5.65
2022-08-17T07:58:05.458Z,5.70
2022-08-17T07:58:37.290Z,4.95
2022-08-17T07:59:12.627Z,4.13
2022-08-17T08:00:16.257Z,4.65
2022-08-17T08:01:05.395Z,4.70
2022-08-17T08:01:41.675Z,4.70
2022-08-17T08:02:33.564Z,4.82
2022-08-17T08:03:17.936Z,5.25
2022-08-17T08:03:52.543Z,4.47
2022-08-17T08:05:48.709Z,4.63
2022-08-17T08:06:22.888Z,5.60
2022-08-17T08:06:57.115Z,4.25
2022-08-17T08:07:34.569Z,4.68
2022-08-17T08:08:22.326Z,4.72
2022-08-17T08:08:57.110Z,4.85
2022-08-17T08:09:32.591Z,4.47
2022-08-17T08:10:08.993Z,5.45
2022-08-17T08:10:45.406Z,4.75
2022-08-17T08:11:31.758Z,4.85
2022-08-17T08:12:32.722Z,4.68
2022-08-17T08:13:12.305Z,5.10
2022-08-17T08:13:49.770Z,5.22
2022-08-17T08:14:28.567Z,4.60
2022-08-17T08:15:09.624Z,5.63
2022-08-17T08:15:53.786Z,5.00